createdAt,value
2018-05-16T00:00:23.347Z,4.25
2018-05-16T00:02:49.935Z,4.40
2018-05-16T00:05:16.546Z,4.60
2018-05-16T00:07:43.145Z,4.68
2018-05-16T00:10:09.729Z,4.60
2018-05-16T00:12:36.334Z,3.80
2018-05-16T00:15:02.924Z,4.43
2018-05-16T00:17:29.522Z,4.20
2018-05-16T00:19:56.104Z,4.10
2018-05-16T00:22:22.697Z,4.95
2018-05-16T00:24:49.302Z,4.03
2018-05-16T00:27:16.218Z,3.55
2018-05-16T00:29:42.803Z,4.40
2018-05-16T00:32:09.384Z,4.03
2018-05-16T00:34:36.747Z,5.25
2018-05-16T00:37:03.343Z,5.10
2018-05-16T00:39:29.936Z,5.25
2018-05-16T00:41:56.527Z,3.37
2018-05-16T00:44:23.125Z,4.75
2018-05-16T00:46:49.707Z,3.75
2018-05-16T00:49:16.300Z,4.18
2018-05-16T00:51:42.899Z,3.67
2018-05-16T00:54:09.507Z,3.78
2018-05-16T00:56:36.101Z,3.65
2018-05-16T00:59:02.694Z,4.28
2018-05-16T01:01:29.981Z,4.97
2018-05-16T01:03:56.570Z,4.22
2018-05-16T01:06:23.156Z,4.40
2018-05-16T01:08:49.744Z,4.28
2018-05-16T01:11:16.343Z,4.80
2018-05-16T01:13:42.944Z,4.72
2018-05-16T01:16:09.539Z,3.03
2018-05-16T01:18:36.128Z,3.45
2018-05-16T01:21:02.713Z,4.47
2018-05-16T01:23:29.327Z,4.62
2018-05-16T01:25:55.926Z,3.58
2018-05-16T01:28:22.537Z,4.00
2018-05-16T01:30:49.120Z,4.35
2018-05-16T01:33:15.714Z,3.35
2018-05-16T01:35:42.310Z,3.83
2018-05-16T01:38:08.929Z,3.17
2018-05-16T01:40:35.524Z,3.78
2018-05-16T01:43:02.104Z,4.10
2018-05-16T01:45:28.702Z,3.90
2018-05-16T01:47:55.292Z,3.75
2018-05-16T01:50:21.888Z,3.85
2018-05-16T01:52:48.472Z,3.67
2018-05-16T01:55:15.060Z,4.30
2018-05-16T01:57:41.767Z,3.92
2018-05-16T02:00:08.404Z,3.60
2018-05-16T02:02:34.963Z,4.12
2018-05-16T02:05:01.553Z,3.33
2018-05-16T02:07:28.182Z,4.03
2018-05-16T02:09:54.786Z,4.37
2018-05-16T02:12:21.381Z,3.28
2018-05-16T02:14:47.964Z,4.40
2018-05-16T02:17:14.570Z,3.70
2018-05-16T02:19:41.156Z,3.40
2018-05-16T02:22:07.748Z,3.95
2018-05-16T02:24:34.339Z,5.93
2018-05-16T02:27:00.920Z,3.65
2018-05-16T02:29:27.526Z,4.45
2018-05-16T02:31:54.118Z,3.40
2018-05-16T02:34:21.485Z,3.22
2018-05-16T02:36:48.077Z,4.37
2018-05-16T02:39:14.675Z,4.53
2018-05-16T02:41:41.260Z,4.10
2018-05-16T02:44:07.857Z,3.30
2018-05-16T02:46:34.454Z,4.65
2018-05-16T02:49:01.050Z,4.90
2018-05-16T02:51:27.641Z,3.78
2018-05-16T02:53:54.247Z,4.25
2018-05-16T02:56:20.846Z,4.28
2018-05-16T02:58:47.778Z,4.22
2018-05-16T03:01:14.358Z,3.53
2018-05-16T03:03:40.959Z,4.35
2018-05-16T03:06:07.544Z,3.55
2018-05-16T03:08:34.144Z,3.60
2018-05-16T03:11:00.755Z,2.87
2018-05-16T03:13:27.341Z,3.45
2018-05-16T03:15:53.938Z,2.85
2018-05-16T03:18:20.528Z,4.65
2018-05-16T03:20:47.764Z,3.25
2018-05-16T03:23:14.365Z,4.72
2018-05-16T03:25:40.958Z,3.50
2018-05-16T03:28:07.560Z,3.87
2018-05-16T03:30:34.168Z,3.62
2018-05-16T03:33:00.766Z,3.12
2018-05-16T03:35:27.361Z,3.00
2018-05-16T03:37:53.962Z,3.33
2018-05-16T03:40:20.549Z,3.60
2018-05-16T03:42:47.154Z,5.00
2018-05-16T03:45:13.750Z,3.97
2018-05-16T03:47:40.406Z,4.70
2018-05-16T03:50:07.003Z,2.67
2018-05-16T03:52:33.602Z,3.80
2018-05-16T03:55:00.208Z,3.62
2018-05-16T03:57:32.720Z,4.50
2018-05-16T04:00:05.204Z,3.72
2018-05-16T04:02:37.651Z,3.90
2018-05-16T04:05:04.232Z,3.72
2018-05-16T04:07:30.829Z,3.95
2018-05-16T04:09:57.411Z,4.07
2018-05-16T04:12:24.011Z,5.28
2018-05-16T04:14:50.601Z,4.30
2018-05-16T04:17:17.208Z,3.78
2018-05-16T04:19:43.792Z,3.47
2018-05-16T04:22:10.380Z,3.25
2018-05-16T04:24:37.880Z,4.00
2018-05-16T04:27:04.470Z,3.85
2018-05-16T04:29:31.071Z,3.15
2018-05-16T04:31:57.656Z,3.85
2018-05-16T04:34:24.259Z,2.90
2018-05-16T04:36:50.856Z,3.30
2018-05-16T04:39:17.440Z,4.20
2018-05-16T04:41:44.061Z,2.62
2018-05-16T04:44:10.640Z,4.87
2018-05-16T04:46:37.227Z,4.35
2018-05-16T04:49:03.842Z,3.75
2018-05-16T04:51:30.439Z,4.75
2018-05-16T04:53:57.025Z,4.05
2018-05-16T04:56:23.604Z,3.60
2018-05-16T04:58:50.244Z,3.00
2018-05-16T05:01:16.838Z,5.57
2018-05-16T05:03:43.428Z,3.85
2018-05-16T05:06:10.020Z,5.70
2018-05-16T05:08:36.618Z,4.37
2018-05-16T05:11:03.209Z,4.20
2018-05-16T05:13:29.880Z,4.37
2018-05-16T05:15:56.456Z,4.70
2018-05-16T05:18:23.131Z,3.92
2018-05-16T05:20:49.637Z,3.95
2018-05-16T05:23:16.537Z,4.35
2018-05-16T05:25:43.128Z,4.15
2018-05-16T05:28:09.720Z,3.92
2018-05-16T05:30:36.304Z,4.82
2018-05-16T05:33:02.904Z,3.03
2018-05-16T05:35:29.493Z,3.28
2018-05-16T05:37:56.094Z,4.07
2018-05-16T05:40:22.805Z,5.85
2018-05-16T05:42:49.515Z,4.30
2018-05-16T05:45:16.119Z,3.67
2018-05-16T05:47:42.719Z,4.80
2018-05-16T05:50:09.314Z,3.37
2018-05-16T05:52:35.919Z,4.78
2018-05-16T05:55:02.504Z,4.00
2018-05-16T05:57:29.107Z,3.62
2018-05-16T05:59:55.713Z,3.22
2018-05-16T06:02:22.280Z,5.28
2018-05-16T06:04:48.874Z,4.30
2018-05-16T06:07:15.460Z,5.12
2018-05-16T06:09:42.064Z,3.85
2018-05-16T06:12:08.663Z,5.55
2018-05-16T06:14:35.256Z,3.42
2018-05-16T06:17:01.851Z,5.05
2018-05-16T06:19:28.546Z,4.10
2018-05-16T06:21:55.048Z,4.15
2018-05-16T06:24:21.652Z,4.15
2018-05-16T06:26:48.251Z,4.37
2018-05-16T06:29:14.851Z,4.40
2018-05-16T06:31:41.441Z,4.15
2018-05-16T06:34:08.024Z,3.83
2018-05-16T06:36:34.622Z,4.32
2018-05-16T06:39:01.204Z,4.43
2018-05-16T06:41:27.806Z,4.18
2018-05-16T06:43:54.408Z,5.00
2018-05-16T06:46:21.007Z,4.75
2018-05-16T06:48:47.609Z,5.60
2018-05-16T06:51:14.203Z,4.28
2018-05-16T06:53:40.827Z,5.78
2018-05-16T06:56:07.412Z,5.03
2018-05-16T06:58:34.043Z,3.90
2018-05-16T07:01:00.629Z,4.47
2018-05-16T07:03:27.241Z,5.10
2018-05-16T07:05:53.840Z,3.60
2018-05-16T07:08:20.437Z,4.97
2018-05-16T07:10:47.036Z,5.78
2018-05-16T07:13:13.642Z,3.92
2018-05-16T07:15:40.239Z,4.62
2018-05-16T07:18:06.838Z,4.90
2018-05-16T07:20:33.417Z,4.47
2018-05-16T07:23:00.009Z,4.10
2018-05-16T07:25:26.596Z,4.40
2018-05-16T07:27:53.215Z,3.83
2018-05-16T07:30:19.810Z,3.83
2018-05-16T07:32:46.409Z,5.57
2018-05-16T07:35:12.992Z,4.78
2018-05-16T07:37:39.586Z,4.18
2018-05-16T07:40:06.186Z,4.43
2018-05-16T07:42:32.782Z,5.90
2018-05-16T07:44:59.361Z,4.82
2018-05-16T07:47:25.978Z,4.40
2018-05-16T07:49:52.575Z,4.25
2018-05-16T07:52:19.186Z,3.67
2018-05-16T07:54:45.786Z,3.80
2018-05-16T07:57:12.443Z,4.40
2018-05-16T07:59:39.035Z,4.43
2018-05-16T08:02:05.663Z,3.65
2018-05-16T08:04:32.266Z,4.32
2018-05-16T08:06:58.874Z,4.78
2018-05-16T08:09:25.472Z,4.97
2018-05-16T08:11:52.070Z,4.05
2018-05-16T08:14:18.663Z,5.55
2018-05-16T08:16:45.268Z,5.25
2018-05-16T08:19:11.872Z,4.68
2018-05-16T08:21:38.510Z,4.07
2018-05-16T08:24:05.075Z,6.15
2018-05-16T08:26:31.667Z,4.55
2018-05-16T08:28:58.275Z,4.78
2018-05-16T08:31:24.874Z,3.70
2018-05-16T08:33:51.452Z,4.47
2018-05-16T08:36:18.111Z,4.95
2018-05-16T08:38:45.040Z,3.30
2018-05-16T08:41:11.640Z,4.82
2018-05-16T08:43:38.232Z,5.65
2018-05-16T08:46:04.843Z,3.30
2018-05-16T08:48:31.433Z,3.35
2018-05-16T08:50:58.056Z,4.05
2018-05-16T08:53:24.673Z,3.35
2018-05-16T08:55:51.305Z,3.03
2018-05-16T08:58:17.904Z,5.37
2018-05-16T09:00:44.596Z,4.32
2018-05-16T09:03:11.176Z,3.20
2018-05-16T09:05:37.784Z,3.50
2018-05-16T09:08:04.373Z,4.47
2018-05-16T09:10:30.960Z,4.87
2018-05-16T09:12:58.153Z,4.93
2018-05-16T09:15:24.737Z,3.17
2018-05-16T09:17:51.332Z,6.22
2018-05-16T09:20:17.929Z,4.93
2018-05-16T09:22:44.539Z,4.32
2018-05-16T09:25:11.146Z,5.70
2018-05-16T09:27:37.724Z,4.37
2018-05-16T09:30:04.320Z,4.97
2018-05-16T09:32:30.927Z,4.75
2018-05-16T09:34:57.508Z,4.30
2018-05-16T09:37:24.096Z,4.15
2018-05-16T09:39:50.689Z,4.40
2018-05-16T09:42:17.280Z,5.07
2018-05-16T09:44:43.878Z,3.87
2018-05-16T09:47:10.461Z,4.00
2018-05-16T09:49:37.075Z,3.67
2018-05-16T09:52:03.679Z,4.07
2018-05-16T09:54:30.274Z,4.78
2018-05-16T09:56:56.864Z,5.15
2018-05-16T09:59:23.452Z,4.37
2018-05-16T10:01:50.051Z,4.00
2018-05-16T10:04:16.665Z,4.72
2018-05-16T10:06:43.262Z,4.32
2018-05-16T10:09:09.856Z,3.45
2018-05-16T10:11:36.451Z,5.10
2018-05-16T10:14:03.040Z,3.50
2018-05-16T10:16:29.650Z,4.05
2018-05-16T10:18:56.248Z,4.68
2018-05-16T10:21:22.836Z,4.35
2018-05-16T10:23:49.429Z,3.50
2018-05-16T10:26:16.009Z,4.05
2018-05-16T10:28:42.614Z,4.93
2018-05-16T10:31:09.212Z,3.95
2018-05-16T10:33:35.810Z,4.03
2018-05-16T10:36:02.420Z,3.72
2018-05-16T10:38:29.023Z,4.72
2018-05-16T10:40:55.608Z,5.60
2018-05-16T10:43:22.207Z,5.50
2018-05-16T10:45:48.818Z,5.05
2018-05-16T10:48:15.420Z,4.30
2018-05-16T10:50:42.004Z,4.60
2018-05-16T10:53:08.607Z,3.67
2018-05-16T10:55:35.213Z,4.07
2018-05-16T10:58:01.827Z,5.22
2018-05-16T11:00:28.413Z,4.40
2018-05-16T11:02:55.000Z,3.72
2018-05-16T11:05:21.616Z,5.18
2018-05-16T11:07:48.218Z,2.97
2018-05-16T11:10:14.809Z,4.18
2018-05-16T11:12:41.463Z,5.40
2018-05-16T11:15:08.111Z,3.53
2018-05-16T11:17:35.196Z,3.53
2018-05-16T11:20:01.827Z,4.97
2018-05-16T11:22:28.428Z,3.72
2018-05-16T11:24:55.026Z,4.90
2018-05-16T11:27:21.620Z,4.10
2018-05-16T11:29:48.218Z,4.82
2018-05-16T11:32:14.819Z,4.03
2018-05-16T11:34:41.426Z,4.43
2018-05-16T11:37:08.027Z,4.32
2018-05-16T11:39:34.626Z,4.37
2018-05-16T11:42:01.555Z,3.92
2018-05-16T11:44:28.144Z,3.92
2018-05-16T11:46:54.732Z,3.65
2018-05-16T11:49:21.842Z,4.40
2018-05-16T11:51:48.428Z,4.75
2018-05-16T11:54:15.028Z,5.43
2018-05-16T11:56:41.629Z,5.82
2018-05-16T11:59:08.250Z,4.65
2018-05-16T12:01:34.828Z,6.07
2018-05-16T12:04:01.453Z,4.20
2018-05-16T12:06:28.038Z,4.90
2018-05-16T12:08:54.636Z,5.10
2018-05-16T12:11:21.247Z,5.53
2018-05-16T12:13:48.123Z,4.87
2018-05-16T12:16:14.729Z,4.85
2018-05-16T12:18:41.330Z,4.90
2018-05-16T12:21:07.935Z,5.20
2018-05-16T12:23:34.545Z,4.57
2018-05-16T12:26:01.952Z,8.60
2018-05-16T12:28:28.553Z,6.72
2018-05-16T12:30:55.158Z,6.57
2018-05-16T12:33:21.748Z,5.53
2018-05-16T12:35:48.344Z,6.30
2018-05-16T12:38:14.934Z,4.22
2018-05-16T12:40:41.536Z,4.90
2018-05-16T12:43:13.971Z,5.50
2018-05-16T12:45:40.573Z,6.40
2018-05-16T12:48:07.162Z,5.72
2018-05-16T12:50:33.748Z,7.00
2018-05-16T12:53:00.347Z,6.12
2018-05-16T12:55:26.958Z,4.62
2018-05-16T12:57:53.567Z,5.75
2018-05-16T13:00:20.159Z,3.80
2018-05-16T13:02:46.819Z,4.03
2018-05-16T13:05:13.414Z,5.50
2018-05-16T13:07:40.041Z,5.32
2018-05-16T13:10:06.629Z,5.65
2018-05-16T13:12:33.731Z,4.70
2018-05-16T13:15:00.334Z,4.10
2018-05-16T13:17:26.924Z,3.53
2018-05-16T13:19:53.515Z,5.45
2018-05-16T13:22:20.116Z,5.80
2018-05-16T13:24:47.636Z,4.20
2018-05-16T13:27:14.232Z,5.05
2018-05-16T13:29:40.821Z,3.90
2018-05-16T13:32:07.428Z,4.30
2018-05-16T13:34:34.029Z,3.87
2018-05-16T13:37:01.730Z,4.50
2018-05-16T13:39:28.327Z,4.10
2018-05-16T13:41:54.923Z,3.45
2018-05-16T13:44:21.521Z,3.90
2018-05-16T13:46:48.116Z,4.43
2018-05-16T13:49:14.700Z,3.92
2018-05-16T13:51:42.271Z,3.35
2018-05-16T13:54:08.883Z,4.45
2018-05-16T13:56:35.479Z,3.78
2018-05-16T13:59:02.103Z,4.32
2018-05-16T14:01:28.695Z,3.60
2018-05-16T14:03:55.296Z,3.60
2018-05-16T14:06:21.918Z,2.67
2018-05-16T14:08:48.507Z,2.95
2018-05-16T14:11:15.097Z,4.57
2018-05-16T14:13:41.709Z,4.12
2018-05-16T14:16:08.340Z,3.65
2018-05-16T14:18:35.127Z,5.05
2018-05-16T14:21:01.809Z,3.20
2018-05-16T14:23:28.415Z,4.95
2018-05-16T14:25:55.008Z,4.35
2018-05-16T14:28:21.623Z,4.00
2018-05-16T14:30:48.220Z,4.05
2018-05-16T14:33:14.821Z,3.65
2018-05-16T14:35:41.741Z,4.28
2018-05-16T14:38:08.449Z,3.53
2018-05-16T14:40:35.290Z,4.12
2018-05-16T14:43:01.885Z,2.85
2018-05-16T14:45:28.469Z,3.40
2018-05-16T14:47:55.946Z,4.10
2018-05-16T14:50:22.546Z,6.18
2018-05-16T14:52:49.154Z,3.40
2018-05-16T14:55:15.758Z,4.32
2018-05-16T14:57:42.364Z,3.67
2018-05-16T15:00:08.991Z,4.15
2018-05-16T15:02:36.434Z,3.33
2018-05-16T15:05:03.048Z,2.45
2018-05-16T15:07:30.621Z,3.30
2018-05-16T15:09:57.174Z,3.55
2018-05-16T15:12:24.255Z,3.30
2018-05-16T15:14:50.948Z,3.50
2018-05-16T15:17:17.499Z,3.80
2018-05-16T15:19:44.210Z,3.92
2018-05-16T15:22:10.892Z,4.00
2018-05-16T15:24:38.352Z,4.55
2018-05-16T15:27:04.948Z,3.17
2018-05-16T15:29:31.537Z,3.22
2018-05-16T15:31:59.051Z,4.82
2018-05-16T15:34:26.882Z,4.18
2018-05-16T15:36:53.516Z,3.55
2018-05-16T15:39:20.180Z,3.80
2018-05-16T15:41:46.899Z,4.00
2018-05-16T15:44:13.517Z,4.87
2018-05-16T15:46:40.165Z,3.75
2018-05-16T15:49:06.759Z,4.12
2018-05-16T15:51:34.263Z,3.72
2018-05-16T15:54:00.900Z,4.45
2018-05-16T15:56:27.499Z,3.05
2018-05-16T15:58:54.177Z,2.47
2018-05-16T16:01:20.788Z,4.05
2018-05-16T16:03:47.928Z,4.10
2018-05-16T16:06:14.543Z,3.87
2018-05-16T16:08:41.148Z,5.22
2018-05-16T16:11:07.765Z,5.78
2018-05-16T16:13:34.396Z,3.50
2018-05-16T16:16:01.562Z,3.90
2018-05-16T16:18:28.163Z,4.87
2018-05-16T16:20:54.755Z,3.67
2018-05-16T16:23:21.411Z,5.12
2018-05-16T16:25:48.020Z,4.32
2018-05-16T16:28:14.637Z,3.97
2018-05-16T16:30:41.312Z,5.80
2018-05-16T16:33:07.963Z,4.75
2018-05-16T16:35:34.584Z,6.22
2018-05-16T16:38:01.173Z,5.10
2018-05-16T16:40:27.771Z,4.28
2018-05-16T16:42:54.367Z,4.95
2018-05-16T16:45:21.135Z,5.15
2018-05-16T16:47:48.247Z,6.12
2018-05-16T16:50:14.920Z,5.30
2018-05-16T16:52:41.445Z,4.00
2018-05-16T16:55:08.084Z,5.50
2018-05-16T16:57:34.726Z,5.87
2018-05-16T17:00:01.323Z,6.32
2018-05-16T17:02:27.923Z,5.12
2018-05-16T17:04:55.271Z,6.57
2018-05-16T17:07:21.885Z,6.62
2018-05-16T17:09:48.496Z,6.40
2018-05-16T17:12:15.106Z,7.82
2018-05-16T17:14:41.720Z,10.68
2018-05-16T17:17:09.373Z,11.57
2018-05-16T17:19:36.027Z,5.82
2018-05-16T17:22:02.658Z,7.15
2018-05-16T17:24:29.277Z,7.78
2018-05-16T17:26:55.996Z,8.68
2018-05-16T17:29:22.499Z,7.32
2018-05-16T17:31:49.107Z,7.40
2018-05-16T17:34:15.695Z,8.07
2018-05-16T17:36:42.382Z,8.10
2018-05-16T17:39:09.176Z,6.40
2018-05-16T17:41:35.834Z,6.22
2018-05-16T17:44:02.416Z,6.10
2018-05-16T17:46:29.129Z,6.65
2018-05-16T17:48:55.711Z,6.90
2018-05-16T17:51:22.379Z,5.72
2018-05-16T17:53:49.043Z,7.75
2018-05-16T17:56:15.681Z,7.50
2018-05-16T17:58:42.288Z,6.55
2018-05-16T18:01:08.903Z,6.55
2018-05-16T18:03:35.556Z,7.62
2018-05-16T18:06:02.225Z,7.35
2018-05-16T18:08:28.816Z,6.57
2018-05-16T18:10:55.431Z,6.25
2018-05-16T18:13:36.955Z,7.97
2018-05-16T18:16:09.422Z,7.85
2018-05-16T18:18:36.029Z,6.45
2018-05-16T18:21:02.782Z,6.28
2018-05-16T18:23:29.689Z,8.65
2018-05-16T18:25:56.899Z,4.85
2018-05-16T18:28:23.834Z,6.55
2018-05-16T18:30:50.550Z,4.47
2018-05-16T18:33:17.140Z,4.62
2018-05-16T18:35:44.244Z,5.93
2018-05-16T18:38:10.841Z,5.90
2018-05-16T18:40:37.508Z,4.62
2018-05-16T18:43:04.146Z,4.53
2018-05-16T18:45:30.750Z,5.30
2018-05-16T18:47:57.341Z,5.60
2018-05-16T18:50:23.939Z,6.07
2018-05-16T18:52:50.601Z,4.57
2018-05-16T18:55:17.198Z,5.87
2018-05-16T18:57:43.792Z,3.95
2018-05-16T19:00:10.780Z,6.05
2018-05-16T19:02:37.533Z,5.68
2018-05-16T19:05:04.209Z,5.18
2018-05-16T19:07:30.857Z,5.37
2018-05-16T19:09:57.437Z,6.05
2018-05-16T19:12:24.052Z,6.30
2018-05-16T19:14:50.651Z,5.10
2018-05-16T19:17:17.267Z,4.82
2018-05-16T19:19:43.863Z,5.40
2018-05-16T19:22:10.536Z,4.07
2018-05-16T19:24:37.129Z,3.72
2018-05-16T19:27:03.755Z,4.03
2018-05-16T19:29:30.329Z,5.75
2018-05-16T19:31:56.991Z,4.10
2018-05-16T19:34:23.620Z,4.95
2018-05-16T19:36:50.230Z,7.95
2018-05-16T19:39:16.820Z,4.07
2018-05-16T19:41:43.443Z,5.28
2018-05-16T19:44:10.816Z,5.45
2018-05-16T19:46:37.405Z,3.92
2018-05-16T19:49:04.053Z,3.72
2018-05-16T19:51:30.699Z,4.43
2018-05-16T19:53:57.305Z,5.22
2018-05-16T19:56:23.887Z,3.10
2018-05-16T19:58:50.477Z,3.50
2018-05-16T20:01:17.143Z,4.00
2018-05-16T20:03:43.737Z,4.60
2018-05-16T20:06:10.405Z,3.40
2018-05-16T20:08:37.015Z,4.93
2018-05-16T20:11:03.608Z,3.87
2018-05-16T20:13:30.952Z,3.25
2018-05-16T20:15:57.560Z,3.85
2018-05-16T20:18:24.157Z,3.08
2018-05-16T20:20:50.829Z,3.67
2018-05-16T20:23:17.439Z,3.15
2018-05-16T20:25:44.109Z,4.00
2018-05-16T20:28:10.703Z,3.12
2018-05-16T20:30:37.303Z,3.28
2018-05-16T20:33:03.892Z,3.90
2018-05-16T20:35:31.473Z,3.15
2018-05-16T20:37:58.281Z,4.30
2018-05-16T20:40:25.464Z,3.65
2018-05-16T20:42:52.048Z,3.72
2018-05-16T20:45:18.714Z,3.30
2018-05-16T20:47:45.249Z,3.67
2018-05-16T20:50:11.850Z,3.03
2018-05-16T20:52:38.463Z,4.30
2018-05-16T20:55:06.082Z,4.43
2018-05-16T20:57:33.439Z,3.15
2018-05-16T21:00:00.113Z,2.67
2018-05-16T21:02:26.793Z,3.05
2018-05-16T21:04:53.364Z,4.03
2018-05-16T21:07:20.000Z,3.40
2018-05-16T21:09:46.674Z,3.40
2018-05-16T21:12:13.379Z,2.75
2018-05-16T21:14:39.973Z,3.05
2018-05-16T21:17:06.600Z,3.17
2018-05-16T21:19:33.177Z,2.95
2018-05-16T21:21:59.813Z,3.62
2018-05-16T21:24:26.419Z,3.17
2018-05-16T21:26:53.008Z,2.80
2018-05-16T21:29:19.611Z,3.10
2018-05-16T21:31:46.198Z,2.60
2018-05-16T21:34:12.799Z,2.55
2018-05-16T21:36:39.439Z,5.57
2018-05-16T21:39:06.079Z,2.67
2018-05-16T21:41:32.685Z,3.35
2018-05-16T21:43:59.290Z,2.33
2018-05-16T21:46:25.891Z,2.75
2018-05-16T21:48:52.498Z,2.87
2018-05-16T21:51:19.154Z,3.62
2018-05-16T21:53:45.759Z,2.87
2018-05-16T21:56:12.376Z,3.40
2018-05-16T21:58:38.952Z,4.35
2018-05-16T22:01:05.599Z,3.20
2018-05-16T22:03:32.222Z,2.80
2018-05-16T22:05:58.878Z,2.33
2018-05-16T22:08:25.874Z,2.30
2018-05-16T22:10:52.445Z,3.50
2018-05-16T22:13:19.077Z,3.35
2018-05-16T22:15:45.672Z,3.10
2018-05-16T22:18:12.260Z,2.85
2018-05-16T22:20:38.862Z,2.67
2018-05-16T22:23:05.468Z,2.80
2018-05-16T22:25:32.049Z,2.72
2018-05-16T22:27:58.705Z,3.35
2018-05-16T22:30:31.072Z,2.90
2018-05-16T22:33:03.416Z,2.00
2018-05-16T22:35:35.708Z,3.28
2018-05-16T22:38:08.263Z,3.80
2018-05-16T22:40:40.721Z,2.17
2018-05-16T22:43:06.922Z,3.78
2018-05-16T22:45:39.315Z,2.33
2018-05-16T22:48:05.999Z,3.05
2018-05-16T22:50:32.630Z,2.60
2018-05-16T22:52:59.224Z,3.05
2018-05-16T22:55:25.906Z,2.65
2018-05-16T22:57:52.528Z,3.58
2018-05-16T23:00:21.950Z,3.22
2018-05-16T23:02:48.540Z,1.95
2018-05-16T23:05:15.204Z,2.42
2018-05-16T23:07:41.835Z,2.08
2018-05-16T23:10:08.432Z,2.47
2018-05-16T23:12:35.040Z,2.50
2018-05-16T23:15:01.642Z,3.33
2018-05-16T23:17:28.243Z,3.30
2018-05-16T23:19:54.839Z,2.95
2018-05-16T23:22:21.433Z,3.72
2018-05-16T23:24:48.021Z,2.70
2018-05-16T23:27:14.641Z,2.85
2018-05-16T23:29:41.275Z,2.90
2018-05-16T23:32:07.901Z,2.37
2018-05-16T23:34:34.553Z,3.75
2018-05-16T23:37:01.168Z,2.97
2018-05-16T23:39:27.759Z,2.58
2018-05-16T23:41:54.362Z,2.80
2018-05-16T23:44:20.948Z,2.80
2018-05-16T23:46:48.250Z,2.70
2018-05-16T23:49:14.848Z,1.92
2018-05-16T23:51:41.429Z,3.15
2018-05-16T23:54:08.045Z,3.40
2018-05-16T23:56:34.620Z,3.10
2018-05-16T23:59:01.204Z,2.00
